sensor_id;sensor_type;location;lat;lon;timestamp;temperature;humidity
28336;DHT22;15592;53.656;7.276;2023-05-07T00:01:42;10.60;99.90
28336;DHT22;15592;53.656;7.276;2023-05-07T00:04:08;10.60;99.90
28336;DHT22;15592;53.656;7.276;2023-05-07T00:06:34;10.60;99.90
28336;DHT22;15592;53.656;7.276;2023-05-07T00:08:59;10.60;99.90
28336;DHT22;15592;53.656;7.276;2023-05-07T00:11:26;10.60;99.90
28336;DHT22;15592;53.656;7.276;2023-05-07T00:13:52;10.60;99.90
28336;DHT22;15592;53.656;7.276;2023-05-07T00:16:18;10.60;99.90
28336;DHT22;15592;53.656;7.276;2023-05-07T00:18:43;10.60;99.90
28336;DHT22;15592;53.656;7.276;2023-05-07T00:21:09;10.50;99.90
28336;DHT22;15592;53.656;7.276;2023-05-07T00:23:35;10.50;99.90
28336;DHT22;15592;53.656;7.276;2023-05-07T00:26:00;10.50;99.90
28336;DHT22;15592;53.656;7.276;2023-05-07T00:28:26;10.50;99.90
28336;DHT22;15592;53.656;7.276;2023-05-07T00:30:52;10.50;99.90
28336;DHT22;15592;53.656;7.276;2023-05-07T00:33:18;10.50;99.90
28336;DHT22;15592;53.656;7.276;2023-05-07T00:35:45;10.50;99.90
28336;DHT22;15592;53.656;7.276;2023-05-07T00:38:11;10.50;99.90
28336;DHT22;15592;53.656;7.276;2023-05-07T00:40:36;10.50;99.90
28336;DHT22;15592;53.656;7.276;2023-05-07T00:43:02;10.50;99.90
28336;DHT22;15592;53.656;7.276;2023-05-07T00:45:28;10.50;99.90
28336;DHT22;15592;53.656;7.276;2023-05-07T00:47:59;10.50;99.90
28336;DHT22;15592;53.656;7.276;2023-05-07T00:50:26;10.50;99.90
28336;DHT22;15592;53.656;7.276;2023-05-07T00:52:52;10.50;99.90
28336;DHT22;15592;53.656;7.276;2023-05-07T00:55:18;10.50;99.90
28336;DHT22;15592;53.656;7.276;2023-05-07T00:57:44;10.50;99.90
28336;DHT22;15592;53.656;7.276;2023-05-07T01:00:10;10.40;99.90
28336;DHT22;15592;53.656;7.276;2023-05-07T01:02:38;10.40;99.90
28336;DHT22;15592;53.656;7.276;2023-05-07T01:05:05;10.40;99.90
28336;DHT22;15592;53.656;7.276;2023-05-07T01:07:33;10.50;99.90
28336;DHT22;15592;53.656;7.276;2023-05-07T01:10:00;10.50;99.90
28336;DHT22;15592;53.656;7.276;2023-05-07T01:12:28;10.50;99.90
28336;DHT22;15592;53.656;7.276;2023-05-07T01:14:54;10.50;99.90
28336;DHT22;15592;53.656;7.276;2023-05-07T01:17:20;10.50;99.90
28336;DHT22;15592;53.656;7.276;2023-05-07T01:19:45;10.50;99.90
28336;DHT22;15592;53.656;7.276;2023-05-07T01:22:15;10.40;99.90
28336;DHT22;15592;53.656;7.276;2023-05-07T01:24:41;10.50;99.90
28336;DHT22;15592;53.656;7.276;2023-05-07T01:27:07;10.40;99.90
28336;DHT22;15592;53.656;7.276;2023-05-07T01:29:33;10.40;99.90
28336;DHT22;15592;53.656;7.276;2023-05-07T01:32:00;10.40;99.90
28336;DHT22;15592;53.656;7.276;2023-05-07T01:34:27;10.40;99.90
28336;DHT22;15592;53.656;7.276;2023-05-07T01:36:54;10.40;99.90
28336;DHT22;15592;53.656;7.276;2023-05-07T01:39:23;10.30;99.90
28336;DHT22;15592;53.656;7.276;2023-05-07T01:41:49;10.30;99.90
28336;DHT22;15592;53.656;7.276;2023-05-07T01:44:16;10.30;99.90
28336;DHT22;15592;53.656;7.276;2023-05-07T01:46:42;10.30;99.90
28336;DHT22;15592;53.656;7.276;2023-05-07T01:49:08;10.30;99.90
28336;DHT22;15592;53.656;7.276;2023-05-07T01:51:34;10.30;99.90
28336;DHT22;15592;53.656;7.276;2023-05-07T01:53:59;10.20;99.90
28336;DHT22;15592;53.656;7.276;2023-05-07T01:56:25;10.20;99.90
28336;DHT22;15592;53.656;7.276;2023-05-07T01:58:52;10.20;99.90
28336;DHT22;15592;53.656;7.276;2023-05-07T02:01:17;10.20;99.90
28336;DHT22;15592;53.656;7.276;2023-05-07T02:03:43;10.20;99.90
28336;DHT22;15592;53.656;7.276;2023-05-07T02:06:09;10.20;99.90
28336;DHT22;15592;53.656;7.276;2023-05-07T02:08:35;10.10;99.90
28336;DHT22;15592;53.656;7.276;2023-05-07T02:11:01;10.20;99.90
28336;DHT22;15592;53.656;7.276;2023-05-07T02:13:29;10.20;99.90
28336;DHT22;15592;53.656;7.276;2023-05-07T02:15:55;10.20;99.90
28336;DHT22;15592;53.656;7.276;2023-05-07T02:18:21;10.20;99.90
28336;DHT22;15592;53.656;7.276;2023-05-07T02:20:46;10.20;99.90
28336;DHT22;15592;53.656;7.276;2023-05-07T02:23:12;10.20;99.90
28336;DHT22;15592;53.656;7.276;2023-05-07T02:25:38;10.20;99.90
28336;DHT22;15592;53.656;7.276;2023-05-07T02:28:03;10.20;99.90
28336;DHT22;15592;53.656;7.276;2023-05-07T02:30:29;10.20;99.90
28336;DHT22;15592;53.656;7.276;2023-05-07T02:32:54;10.20;99.90
28336;DHT22;15592;53.656;7.276;2023-05-07T02:35:20;10.20;99.90
28336;DHT22;15592;53.656;7.276;2023-05-07T02:37:46;10.30;99.90
28336;DHT22;15592;53.656;7.276;2023-05-07T02:40:12;10.20;99.90
28336;DHT22;15592;53.656;7.276;2023-05-07T02:42:37;10.30;99.90
28336;DHT22;15592;53.656;7.276;2023-05-07T02:45:03;10.20;99.90
28336;DHT22;15592;53.656;7.276;2023-05-07T02:47:29;10.20;99.90
28336;DHT22;15592;53.656;7.276;2023-05-07T02:49:55;10.20;99.90
28336;DHT22;15592;53.656;7.276;2023-05-07T02:52:21;10.20;99.90
28336;DHT22;15592;53.656;7.276;2023-05-07T02:54:46;10.20;99.90
28336;DHT22;15592;53.656;7.276;2023-05-07T02:57:12;10.20;99.90
28336;DHT22;15592;53.656;7.276;2023-05-07T02:59:38;10.20;99.90
28336;DHT22;15592;53.656;7.276;2023-05-07T03:02:03;10.20;99.90
28336;DHT22;15592;53.656;7.276;2023-05-07T03:04:29;10.20;99.90
28336;DHT22;15592;53.656;7.276;2023-05-07T03:06:55;10.20;99.90
28336;DHT22;15592;53.656;7.276;2023-05-07T03:09:20;10.20;99.90
28336;DHT22;15592;53.656;7.276;2023-05-07T03:11:46;10.10;99.90
28336;DHT22;15592;53.656;7.276;2023-05-07T03:14:12;10.10;99.90
28336;DHT22;15592;53.656;7.276;2023-05-07T03:16:38;10.10;99.90
28336;DHT22;15592;53.656;7.276;2023-05-07T03:19:03;10.10;99.90
28336;DHT22;15592;53.656;7.276;2023-05-07T03:21:30;10.10;99.90
28336;DHT22;15592;53.656;7.276;2023-05-07T03:23:56;10.10;99.90
28336;DHT22;15592;53.656;7.276;2023-05-07T03:26:21;10.10;99.90
28336;DHT22;15592;53.656;7.276;2023-05-07T03:28:47;10.10;99.90
28336;DHT22;15592;53.656;7.276;2023-05-07T03:31:13;10.10;99.90
28336;DHT22;15592;53.656;7.276;2023-05-07T03:33:56;10.10;99.90
28336;DHT22;15592;53.656;7.276;2023-05-07T03:36:22;10.10;99.90
28336;DHT22;15592;53.656;7.276;2023-05-07T03:38:48;10.10;99.90
28336;DHT22;15592;53.656;7.276;2023-05-07T03:41:14;10.10;99.90
28336;DHT22;15592;53.656;7.276;2023-05-07T03:43:40;10.00;99.90
28336;DHT22;15592;53.656;7.276;2023-05-07T03:46:05;10.00;99.90
28336;DHT22;15592;53.656;7.276;2023-05-07T03:48:31;10.00;99.90
28336;DHT22;15592;53.656;7.276;2023-05-07T03:50:59;10.00;99.90
28336;DHT22;15592;53.656;7.276;2023-05-07T03:53:25;10.00;99.90
28336;DHT22;15592;53.656;7.276;2023-05-07T03:55:51;10.00;99.90
28336;DHT22;15592;53.656;7.276;2023-05-07T03:58:16;10.00;99.90
28336;DHT22;15592;53.656;7.276;2023-05-07T04:00:42;10.00;99.90
28336;DHT22;15592;53.656;7.276;2023-05-07T04:03:07;10.00;99.90
28336;DHT22;15592;53.656;7.276;2023-05-07T04:05:33;10.00;99.90
28336;DHT22;15592;53.656;7.276;2023-05-07T04:07:59;9.90;99.90
28336;DHT22;15592;53.656;7.276;2023-05-07T04:10:25;9.90;99.90
28336;DHT22;15592;53.656;7.276;2023-05-07T04:12:51;9.90;99.90
28336;DHT22;15592;53.656;7.276;2023-05-07T04:15:16;9.90;99.90
28336;DHT22;15592;53.656;7.276;2023-05-07T04:17:42;9.90;99.90
28336;DHT22;15592;53.656;7.276;2023-05-07T04:20:14;9.90;99.90
28336;DHT22;15592;53.656;7.276;2023-05-07T04:22:40;9.90;99.90
28336;DHT22;15592;53.656;7.276;2023-05-07T04:25:06;9.90;99.90
28336;DHT22;15592;53.656;7.276;2023-05-07T04:27:34;9.90;99.90
28336;DHT22;15592;53.656;7.276;2023-05-07T04:30:00;9.90;99.90
28336;DHT22;15592;53.656;7.276;2023-05-07T04:32:26;9.90;99.90
28336;DHT22;15592;53.656;7.276;2023-05-07T04:34:54;9.90;99.90
28336;DHT22;15592;53.656;7.276;2023-05-07T04:37:21;9.90;99.90
28336;DHT22;15592;53.656;7.276;2023-05-07T04:39:46;9.80;99.90
28336;DHT22;15592;53.656;7.276;2023-05-07T04:42:15;9.80;99.90
28336;DHT22;15592;53.656;7.276;2023-05-07T04:44:41;9.80;99.90
28336;DHT22;15592;53.656;7.276;2023-05-07T04:47:06;9.80;99.90
28336;DHT22;15592;53.656;7.276;2023-05-07T04:49:32;9.80;99.90
28336;DHT22;15592;53.656;7.276;2023-05-07T04:51:57;9.90;99.90
28336;DHT22;15592;53.656;7.276;2023-05-07T04:54:23;9.80;99.90
28336;DHT22;15592;53.656;7.276;2023-05-07T04:56:48;9.80;99.90
28336;DHT22;15592;53.656;7.276;2023-05-07T04:59:14;9.70;99.90
28336;DHT22;15592;53.656;7.276;2023-05-07T05:01:39;9.70;99.90
28336;DHT22;15592;53.656;7.276;2023-05-07T05:04:05;9.70;99.90
28336;DHT22;15592;53.656;7.276;2023-05-07T05:06:31;9.70;99.90
28336;DHT22;15592;53.656;7.276;2023-05-07T05:08:57;9.70;99.90
28336;DHT22;15592;53.656;7.276;2023-05-07T05:11:23;9.70;99.90
28336;DHT22;15592;53.656;7.276;2023-05-07T05:13:49;9.70;99.90
28336;DHT22;15592;53.656;7.276;2023-05-07T05:16:15;9.70;99.90
28336;DHT22;15592;53.656;7.276;2023-05-07T05:18:41;9.70;99.90
28336;DHT22;15592;53.656;7.276;2023-05-07T05:21:06;9.80;99.90
28336;DHT22;15592;53.656;7.276;2023-05-07T05:23:32;9.70;99.90
28336;DHT22;15592;53.656;7.276;2023-05-07T05:25:58;9.80;99.90
28336;DHT22;15592;53.656;7.276;2023-05-07T05:28:24;9.80;99.90
28336;DHT22;15592;53.656;7.276;2023-05-07T05:30:49;9.80;99.90
28336;DHT22;15592;53.656;7.276;2023-05-07T05:33:15;9.80;99.90
28336;DHT22;15592;53.656;7.276;2023-05-07T05:35:41;9.80;99.90
28336;DHT22;15592;53.656;7.276;2023-05-07T05:38:07;9.80;99.90
28336;DHT22;15592;53.656;7.276;2023-05-07T05:40:32;9.80;99.90
28336;DHT22;15592;53.656;7.276;2023-05-07T05:42:59;9.80;99.90
28336;DHT22;15592;53.656;7.276;2023-05-07T05:45:24;9.90;99.90
28336;DHT22;15592;53.656;7.276;2023-05-07T05:47:50;9.80;99.90
28336;DHT22;15592;53.656;7.276;2023-05-07T05:50:16;9.90;99.90
28336;DHT22;15592;53.656;7.276;2023-05-07T05:52:42;9.90;99.90
28336;DHT22;15592;53.656;7.276;2023-05-07T05:55:08;9.90;99.90
28336;DHT22;15592;53.656;7.276;2023-05-07T05:57:34;9.90;99.90
28336;DHT22;15592;53.656;7.276;2023-05-07T06:00:00;9.90;99.90
28336;DHT22;15592;53.656;7.276;2023-05-07T06:02:26;10.00;99.90
28336;DHT22;15592;53.656;7.276;2023-05-07T06:04:52;10.00;99.90
28336;DHT22;15592;53.656;7.276;2023-05-07T06:07:17;10.00;99.90
28336;DHT22;15592;53.656;7.276;2023-05-07T06:09:43;9.90;99.90
28336;DHT22;15592;53.656;7.276;2023-05-07T06:12:09;10.00;99.90
28336;DHT22;15592;53.656;7.276;2023-05-07T06:14:35;10.00;99.90
28336;DHT22;15592;53.656;7.276;2023-05-07T06:17:00;10.00;99.90
28336;DHT22;15592;53.656;7.276;2023-05-07T06:19:26;9.90;99.90
28336;DHT22;15592;53.656;7.276;2023-05-07T06:21:53;9.90;99.90
28336;DHT22;15592;53.656;7.276;2023-05-07T06:24:19;9.90;99.90
28336;DHT22;15592;53.656;7.276;2023-05-07T06:26:44;9.90;99.90
28336;DHT22;15592;53.656;7.276;2023-05-07T06:29:10;9.90;99.90
28336;DHT22;15592;53.656;7.276;2023-05-07T06:31:36;9.90;99.90
28336;DHT22;15592;53.656;7.276;2023-05-07T06:34:02;9.90;99.90
28336;DHT22;15592;53.656;7.276;2023-05-07T06:36:28;9.90;99.90
28336;DHT22;15592;53.656;7.276;2023-05-07T06:38:53;9.90;99.90
28336;DHT22;15592;53.656;7.276;2023-05-07T06:41:19;9.90;99.90
28336;DHT22;15592;53.656;7.276;2023-05-07T06:43:45;9.90;99.90
28336;DHT22;15592;53.656;7.276;2023-05-07T06:46:11;9.90;99.90
28336;DHT22;15592;53.656;7.276;2023-05-07T06:48:37;9.90;99.90
28336;DHT22;15592;53.656;7.276;2023-05-07T06:51:02;9.90;99.90
28336;DHT22;15592;53.656;7.276;2023-05-07T06:53:28;9.90;99.90
28336;DHT22;15592;53.656;7.276;2023-05-07T06:55:56;10.00;99.90
28336;DHT22;15592;53.656;7.276;2023-05-07T06:58:22;10.00;99.90
28336;DHT22;15592;53.656;7.276;2023-05-07T07:00:47;10.00;99.90
28336;DHT22;15592;53.656;7.276;2023-05-07T07:03:13;10.00;99.90
28336;DHT22;15592;53.656;7.276;2023-05-07T07:05:41;10.00;99.90
28336;DHT22;15592;53.656;7.276;2023-05-07T07:08:06;10.00;99.90
28336;DHT22;15592;53.656;7.276;2023-05-07T07:10:32;10.00;99.90
28336;DHT22;15592;53.656;7.276;2023-05-07T07:12:57;10.00;99.90
28336;DHT22;15592;53.656;7.276;2023-05-07T07:15:23;10.00;99.90
28336;DHT22;15592;53.656;7.276;2023-05-07T07:17:50;10.10;99.90
28336;DHT22;15592;53.656;7.276;2023-05-07T07:20:16;10.10;99.90
28336;DHT22;15592;53.656;7.276;2023-05-07T07:22:41;10.10;99.90
28336;DHT22;15592;53.656;7.276;2023-05-07T07:25:07;10.00;99.90
28336;DHT22;15592;53.656;7.276;2023-05-07T07:27:33;10.00;99.90
28336;DHT22;15592;53.656;7.276;2023-05-07T07:29:59;10.10;99.90
28336;DHT22;15592;53.656;7.276;2023-05-07T07:32:24;10.10;99.90
28336;DHT22;15592;53.656;7.276;2023-05-07T07:34:51;10.10;99.90
28336;DHT22;15592;53.656;7.276;2023-05-07T07:37:16;10.10;99.90
28336;DHT22;15592;53.656;7.276;2023-05-07T07:39:42;10.20;99.90
28336;DHT22;15592;53.656;7.276;2023-05-07T07:42:07;10.20;99.90
28336;DHT22;15592;53.656;7.276;2023-05-07T07:44:33;10.20;99.90
28336;DHT22;15592;53.656;7.276;2023-05-07T07:46:59;10.30;99.90
28336;DHT22;15592;53.656;7.276;2023-05-07T07:49:24;10.20;99.90
28336;DHT22;15592;53.656;7.276;2023-05-07T07:51:50;10.20;99.90
28336;DHT22;15592;53.656;7.276;2023-05-07T07:54:16;10.20;99.90
28336;DHT22;15592;53.656;7.276;2023-05-07T07:56:42;10.20;99.90
28336;DHT22;15592;53.656;7.276;2023-05-07T07:59:07;10.20;99.90
28336;DHT22;15592;53.656;7.276;2023-05-07T08:01:33;10.20;99.90
28336;DHT22;15592;53.656;7.276;2023-05-07T08:03:58;10.20;99.90
28336;DHT22;15592;53.656;7.276;2023-05-07T08:06:24;10.20;99.90
28336;DHT22;15592;53.656;7.276;2023-05-07T08:08:51;10.20;99.90
28336;DHT22;15592;53.656;7.276;2023-05-07T08:11:17;10.20;99.90
28336;DHT22;15592;53.656;7.276;2023-05-07T08:13:42;10.20;99.90
28336;DHT22;15592;53.656;7.276;2023-05-07T08:16:08;10.20;99.90
28336;DHT22;15592;53.656;7.276;2023-05-07T08:18:34;10.20;99.90
28336;DHT22;15592;53.656;7.276;2023-05-07T08:21:01;10.20;99.90
28336;DHT22;15592;53.656;7.276;2023-05-07T08:23:26;10.30;99.90
28336;DHT22;15592;53.656;7.276;2023-05-07T08:25:52;10.30;99.90
28336;DHT22;15592;53.656;7.276;2023-05-07T08:28:18;10.30;99.90
28336;DHT22;15592;53.656;7.276;2023-05-07T08:30:45;10.30;99.90
28336;DHT22;15592;53.656;7.276;2023-05-07T08:33:10;10.30;99.90
28336;DHT22;15592;53.656;7.276;2023-05-07T08:35:36;10.30;99.90
28336;DHT22;15592;53.656;7.276;2023-05-07T08:38:01;10.40;99.90
28336;DHT22;15592;53.656;7.276;2023-05-07T08:40:27;10.40;99.90
28336;DHT22;15592;53.656;7.276;2023-05-07T08:42:54;10.40;99.90
28336;DHT22;15592;53.656;7.276;2023-05-07T08:45:20;10.40;99.90
28336;DHT22;15592;53.656;7.276;2023-05-07T08:47:58;10.40;99.90
28336;DHT22;15592;53.656;7.276;2023-05-07T08:50:24;10.50;99.90
28336;DHT22;15592;53.656;7.276;2023-05-07T08:52:50;10.50;99.90
28336;DHT22;15592;53.656;7.276;2023-05-07T08:55:16;10.50;99.90
28336;DHT22;15592;53.656;7.276;2023-05-07T08:57:42;10.60;99.90
28336;DHT22;15592;53.656;7.276;2023-05-07T09:00:08;10.60;99.90
28336;DHT22;15592;53.656;7.276;2023-05-07T09:02:35;10.60;99.90
28336;DHT22;15592;53.656;7.276;2023-05-07T09:05:01;10.60;99.90
28336;DHT22;15592;53.656;7.276;2023-05-07T09:07:27;10.70;99.90
28336;DHT22;15592;53.656;7.276;2023-05-07T09:09:53;10.70;99.90
28336;DHT22;15592;53.656;7.276;2023-05-07T09:12:21;10.70;99.90
28336;DHT22;15592;53.656;7.276;2023-05-07T09:14:46;10.70;99.90
28336;DHT22;15592;53.656;7.276;2023-05-07T09:17:13;10.80;99.90
28336;DHT22;15592;53.656;7.276;2023-05-07T09:19:38;10.70;99.90
28336;DHT22;15592;53.656;7.276;2023-05-07T09:22:05;10.70;99.90
28336;DHT22;15592;53.656;7.276;2023-05-07T09:24:32;10.70;99.90
28336;DHT22;15592;53.656;7.276;2023-05-07T09:27:03;10.70;99.90
28336;DHT22;15592;53.656;7.276;2023-05-07T09:29:29;10.70;99.90
28336;DHT22;15592;53.656;7.276;2023-05-07T09:31:55;10.70;99.90
28336;DHT22;15592;53.656;7.276;2023-05-07T09:34:21;10.80;99.90
28336;DHT22;15592;53.656;7.276;2023-05-07T09:36:47;10.80;99.90
28336;DHT22;15592;53.656;7.276;2023-05-07T09:39:13;10.90;99.90
28336;DHT22;15592;53.656;7.276;2023-05-07T09:41:46;11.00;99.90
28336;DHT22;15592;53.656;7.276;2023-05-07T09:44:14;11.10;99.90
28336;DHT22;15592;53.656;7.276;2023-05-07T09:46:42;11.10;99.90
28336;DHT22;15592;53.656;7.276;2023-05-07T09:49:13;11.20;99.90
28336;DHT22;15592;53.656;7.276;2023-05-07T09:51:48;11.30;99.90
28336;DHT22;15592;53.656;7.276;2023-05-07T09:54:15;11.30;99.90
28336;DHT22;15592;53.656;7.276;2023-05-07T09:56:42;11.50;99.90
28336;DHT22;15592;53.656;7.276;2023-05-07T09:59:12;11.60;99.90
28336;DHT22;15592;53.656;7.276;2023-05-07T10:01:38;11.70;99.90
28336;DHT22;15592;53.656;7.276;2023-05-07T10:04:06;11.80;99.90
28336;DHT22;15592;53.656;7.276;2023-05-07T10:06:34;11.80;99.90
28336;DHT22;15592;53.656;7.276;2023-05-07T10:09:00;12.00;99.90
28336;DHT22;15592;53.656;7.276;2023-05-07T10:11:26;12.10;99.90
28336;DHT22;15592;53.656;7.276;2023-05-07T10:13:52;12.20;99.90
28336;DHT22;15592;53.656;7.276;2023-05-07T10:16:18;12.30;99.90
28336;DHT22;15592;53.656;7.276;2023-05-07T10:18:45;12.30;99.90
28336;DHT22;15592;53.656;7.276;2023-05-07T10:21:20;12.40;99.90
28336;DHT22;15592;53.656;7.276;2023-05-07T10:23:50;12.50;99.90
28336;DHT22;15592;53.656;7.276;2023-05-07T10:26:18;12.60;99.90
28336;DHT22;15592;53.656;7.276;2023-05-07T10:28:49;12.80;99.90
28336;DHT22;15592;53.656;7.276;2023-05-07T10:31:47;12.80;99.90
28336;DHT22;15592;53.656;7.276;2023-05-07T10:34:18;12.80;99.90
28336;DHT22;15592;53.656;7.276;2023-05-07T10:39:31;12.80;99.90
28336;DHT22;15592;53.656;7.276;2023-05-07T10:42:06;12.80;99.90
28336;DHT22;15592;53.656;7.276;2023-05-07T10:44:32;12.80;99.90
28336;DHT22;15592;53.656;7.276;2023-05-07T10:47:11;12.90;99.90
28336;DHT22;15592;53.656;7.276;2023-05-07T10:52:31;13.00;99.90
28336;DHT22;15592;53.656;7.276;2023-05-07T10:57:42;13.10;99.90
28336;DHT22;15592;53.656;7.276;2023-05-07T11:05:28;13.20;99.90
28336;DHT22;15592;53.656;7.276;2023-05-07T11:07:54;13.20;99.90
28336;DHT22;15592;53.656;7.276;2023-05-07T11:10:21;13.20;99.90
28336;DHT22;15592;53.656;7.276;2023-05-07T11:12:47;13.20;99.90
28336;DHT22;15592;53.656;7.276;2023-05-07T11:15:14;13.30;99.90
28336;DHT22;15592;53.656;7.276;2023-05-07T11:17:59;13.20;99.90
28336;DHT22;15592;53.656;7.276;2023-05-07T11:20:51;13.30;99.90
28336;DHT22;15592;53.656;7.276;2023-05-07T11:26:07;13.50;99.90
28336;DHT22;15592;53.656;7.276;2023-05-07T11:28:38;13.50;99.90
28336;DHT22;15592;53.656;7.276;2023-05-07T11:31:04;13.70;99.90
28336;DHT22;15592;53.656;7.276;2023-05-07T11:33:31;13.70;99.90
28336;DHT22;15592;53.656;7.276;2023-05-07T11:35:57;13.80;99.90
28336;DHT22;15592;53.656;7.276;2023-05-07T11:38:23;13.90;99.90
28336;DHT22;15592;53.656;7.276;2023-05-07T11:40:54;14.10;99.90
28336;DHT22;15592;53.656;7.276;2023-05-07T11:43:20;14.20;99.90
28336;DHT22;15592;53.656;7.276;2023-05-07T11:45:47;14.30;99.90
28336;DHT22;15592;53.656;7.276;2023-05-07T11:48:16;14.50;99.90
28336;DHT22;15592;53.656;7.276;2023-05-07T11:51:00;14.70;99.90
28336;DHT22;15592;53.656;7.276;2023-05-07T11:53:28;15.00;99.90
28336;DHT22;15592;53.656;7.276;2023-05-07T11:55:56;15.10;99.90
28336;DHT22;15592;53.656;7.276;2023-05-07T11:58:24;15.10;99.90
28336;DHT22;15592;53.656;7.276;2023-05-07T12:00:54;15.20;99.90
28336;DHT22;15592;53.656;7.276;2023-05-07T12:03:20;15.20;99.90
28336;DHT22;15592;53.656;7.276;2023-05-07T12:05:47;15.10;99.90
28336;DHT22;15592;53.656;7.276;2023-05-07T12:08:16;15.00;99.90
28336;DHT22;15592;53.656;7.276;2023-05-07T12:10:43;14.90;99.90
28336;DHT22;15592;53.656;7.276;2023-05-07T12:13:19;14.90;99.90
28336;DHT22;15592;53.656;7.276;2023-05-07T12:15:45;14.90;99.90
28336;DHT22;15592;53.656;7.276;2023-05-07T12:18:12;14.90;99.90
28336;DHT22;15592;53.656;7.276;2023-05-07T12:20:38;15.00;99.90
28336;DHT22;15592;53.656;7.276;2023-05-07T12:23:04;15.10;99.90
28336;DHT22;15592;53.656;7.276;2023-05-07T12:25:37;15.10;99.90
28336;DHT22;15592;53.656;7.276;2023-05-07T12:28:03;15.20;99.90
28336;DHT22;15592;53.656;7.276;2023-05-07T12:30:31;15.20;99.90
28336;DHT22;15592;53.656;7.276;2023-05-07T12:32:58;15.20;99.90
28336;DHT22;15592;53.656;7.276;2023-05-07T12:35:37;15.30;99.90
28336;DHT22;15592;53.656;7.276;2023-05-07T12:38:08;15.40;99.90
28336;DHT22;15592;53.656;7.276;2023-05-07T12:40:40;15.40;99.90
28336;DHT22;15592;53.656;7.276;2023-05-07T12:43:07;15.40;99.90
28336;DHT22;15592;53.656;7.276;2023-05-07T12:45:37;15.30;99.90
28336;DHT22;15592;53.656;7.276;2023-05-07T12:48:04;15.30;99.90
28336;DHT22;15592;53.656;7.276;2023-05-07T12:50:33;15.30;99.90
28336;DHT22;15592;53.656;7.276;2023-05-07T12:52:59;15.30;99.90
28336;DHT22;15592;53.656;7.276;2023-05-07T12:55:25;15.30;99.90
28336;DHT22;15592;53.656;7.276;2023-05-07T12:57:51;15.20;99.90
28336;DHT22;15592;53.656;7.276;2023-05-07T13:00:31;15.20;99.90
28336;DHT22;15592;53.656;7.276;2023-05-07T13:02:58;15.20;99.90
28336;DHT22;15592;53.656;7.276;2023-05-07T13:05:23;15.30;99.90
28336;DHT22;15592;53.656;7.276;2023-05-07T13:07:55;15.30;99.90
28336;DHT22;15592;53.656;7.276;2023-05-07T13:10:22;15.30;99.90
28336;DHT22;15592;53.656;7.276;2023-05-07T13:12:49;15.40;99.90
28336;DHT22;15592;53.656;7.276;2023-05-07T13:15:15;15.40;99.90
28336;DHT22;15592;53.656;7.276;2023-05-07T13:17:41;15.40;99.90
28336;DHT22;15592;53.656;7.276;2023-05-07T13:20:08;15.40;99.90
28336;DHT22;15592;53.656;7.276;2023-05-07T13:22:34;15.50;99.90
28336;DHT22;15592;53.656;7.276;2023-05-07T13:24:59;15.50;99.90
28336;DHT22;15592;53.656;7.276;2023-05-07T13:27:25;15.50;99.90
28336;DHT22;15592;53.656;7.276;2023-05-07T13:29:51;15.50;99.90
28336;DHT22;15592;53.656;7.276;2023-05-07T13:32:17;15.50;99.90
28336;DHT22;15592;53.656;7.276;2023-05-07T13:34:42;15.60;99.90
28336;DHT22;15592;53.656;7.276;2023-05-07T13:37:08;15.60;99.90
28336;DHT22;15592;53.656;7.276;2023-05-07T13:39:34;15.70;99.90
28336;DHT22;15592;53.656;7.276;2023-05-07T13:41:59;15.70;99.90
28336;DHT22;15592;53.656;7.276;2023-05-07T13:44:26;15.70;99.90
28336;DHT22;15592;53.656;7.276;2023-05-07T13:46:52;15.80;99.90
28336;DHT22;15592;53.656;7.276;2023-05-07T13:49:17;15.90;99.90
28336;DHT22;15592;53.656;7.276;2023-05-07T13:51:43;15.90;99.90
28336;DHT22;15592;53.656;7.276;2023-05-07T13:54:08;16.00;99.90
28336;DHT22;15592;53.656;7.276;2023-05-07T13:56:34;16.00;99.90
28336;DHT22;15592;53.656;7.276;2023-05-07T13:59:00;16.10;99.90
28336;DHT22;15592;53.656;7.276;2023-05-07T14:01:26;16.10;99.90
28336;DHT22;15592;53.656;7.276;2023-05-07T14:03:52;16.20;99.90
28336;DHT22;15592;53.656;7.276;2023-05-07T14:06:17;16.20;99.90
28336;DHT22;15592;53.656;7.276;2023-05-07T14:08:43;16.20;99.90
28336;DHT22;15592;53.656;7.276;2023-05-07T14:11:08;16.20;99.90
28336;DHT22;15592;53.656;7.276;2023-05-07T14:13:34;16.30;99.90
28336;DHT22;15592;53.656;7.276;2023-05-07T14:16:00;16.30;99.90
28336;DHT22;15592;53.656;7.276;2023-05-07T14:18:26;16.40;99.90
28336;DHT22;15592;53.656;7.276;2023-05-07T14:20:51;16.50;99.90
28336;DHT22;15592;53.656;7.276;2023-05-07T14:23:17;16.60;99.90
28336;DHT22;15592;53.656;7.276;2023-05-07T14:25:45;16.60;99.90
28336;DHT22;15592;53.656;7.276;2023-05-07T14:28:13;16.80;99.90
28336;DHT22;15592;53.656;7.276;2023-05-07T14:30:38;16.80;99.90
28336;DHT22;15592;53.656;7.276;2023-05-07T14:33:04;16.80;99.90
28336;DHT22;15592;53.656;7.276;2023-05-07T14:35:30;16.70;99.90
28336;DHT22;15592;53.656;7.276;2023-05-07T14:37:55;16.80;99.90
28336;DHT22;15592;53.656;7.276;2023-05-07T14:40:21;16.70;99.90
28336;DHT22;15592;53.656;7.276;2023-05-07T14:42:47;16.70;99.90
28336;DHT22;15592;53.656;7.276;2023-05-07T14:45:18;16.70;99.90
28336;DHT22;15592;53.656;7.276;2023-05-07T14:47:44;16.70;99.90
28336;DHT22;15592;53.656;7.276;2023-05-07T14:50:09;16.60;99.90
28336;DHT22;15592;53.656;7.276;2023-05-07T14:52:35;16.60;99.90
28336;DHT22;15592;53.656;7.276;2023-05-07T14:55:01;16.60;99.90
28336;DHT22;15592;53.656;7.276;2023-05-07T14:57:26;16.60;99.90
28336;DHT22;15592;53.656;7.276;2023-05-07T14:59:55;16.70;99.90
28336;DHT22;15592;53.656;7.276;2023-05-07T15:02:20;16.70;99.90
28336;DHT22;15592;53.656;7.276;2023-05-07T15:04:46;16.70;99.90
28336;DHT22;15592;53.656;7.276;2023-05-07T15:07:12;16.70;99.90
28336;DHT22;15592;53.656;7.276;2023-05-07T15:09:44;16.60;99.90
28336;DHT22;15592;53.656;7.276;2023-05-07T15:12:10;16.70;99.90
28336;DHT22;15592;53.656;7.276;2023-05-07T15:14:36;16.70;99.90
28336;DHT22;15592;53.656;7.276;2023-05-07T15:17:02;16.70;99.90
28336;DHT22;15592;53.656;7.276;2023-05-07T15:19:27;16.70;99.90
28336;DHT22;15592;53.656;7.276;2023-05-07T15:21:56;16.70;99.90
28336;DHT22;15592;53.656;7.276;2023-05-07T15:24:23;16.60;99.90
28336;DHT22;15592;53.656;7.276;2023-05-07T15:26:49;16.70;99.90
28336;DHT22;15592;53.656;7.276;2023-05-07T15:29:14;16.60;99.90
28336;DHT22;15592;53.656;7.276;2023-05-07T15:31:40;16.70;99.90
28336;DHT22;15592;53.656;7.276;2023-05-07T15:34:06;16.70;99.90
28336;DHT22;15592;53.656;7.276;2023-05-07T15:36:32;16.60;99.90
28336;DHT22;15592;53.656;7.276;2023-05-07T15:38:57;16.70;99.90
28336;DHT22;15592;53.656;7.276;2023-05-07T15:41:24;16.70;99.90
28336;DHT22;15592;53.656;7.276;2023-05-07T15:43:51;16.70;99.90
28336;DHT22;15592;53.656;7.276;2023-05-07T15:46:22;16.80;99.90